Pagrindinis puslapis
METAR-TAF:

METAR-TAF

Oro uostai :

Savoonga, Aliaska, Jungtinės Amerikos Valstijos

platuma: 63-41N, ilguma: 170-30W, Aukštis: 16 m

Dabartinis oras

Ataskaita buvo paskelbta 14 minutes, ne 04:56 UTC
Vėjas 6 kt iš Šiaurės Vakarų
Temperatūra 8°C
Drėgmė 87%
Slėgis 1012 hPa
Matomumas: 16.1 km
Išsisklaidę debesys ne aukštis 3000 ft
Apsiniaukę ne aukštis 4300 ft

METAR: PASA 160456Z AUTO 32006KT 10SM SCT030 OVC043 08/06 A2987 RMK AO2 SLP114 T00830061

Laikas: 21:10 (05:10 UTC)


TAF: trūkstamas

Orai ataskaitas ir orų prognozės (METAR, TAF).

turimą stotys yra geltonos ir raudonos taškus žemėlapyje.

Perkelti pele per norėdami pamatyti stoties vardą.

Tada spustelėkite, norėdami matyti oro stebėjimo ir prognozės.

Norėdami pakeisti žemėlapį: spustelėkite ant žalios mygtukų su juodo kryžiaus žemyn,; žalią mygtuką su brūkšneliu, jei norite nutolinti; arba žalių rodyklių gretimoms žemėlapius.


METAR-TAF: